sensor_id;sensor_type;location;lat;lon;timestamp;pressure;altitude;pressure_sealevel;temperature;humidity
14594;BME280;7383;52.354;9.756;2023-07-16T00:00:52;-12862.25;;;23.60;100.00
14594;BME280;7383;52.354;9.756;2023-07-16T00:03:19;-12862.34;;;23.61;100.00
14594;BME280;7383;52.354;9.756;2023-07-16T00:05:49;-12861.75;;;23.57;100.00
14594;BME280;7383;52.354;9.756;2023-07-16T00:08:15;-12861.75;;;23.57;100.00
14594;BME280;7383;52.354;9.756;2023-07-16T00:10:42;-12861.75;;;23.57;100.00
14594;BME280;7383;52.354;9.756;2023-07-16T00:13:09;-12861.16;;;23.53;100.00
14594;BME280;7383;52.354;9.756;2023-07-16T00:15:36;-12861.00;;;23.52;100.00
14594;BME280;7383;52.354;9.756;2023-07-16T00:18:02;-12860.72;;;23.51;100.00
14594;BME280;7383;52.354;9.756;2023-07-16T00:20:31;-12860.66;;;23.50;100.00
14594;BME280;7383;52.354;9.756;2023-07-16T00:22:59;-12860.56;;;23.50;100.00
14594;BME280;7383;52.354;9.756;2023-07-16T00:25:25;-12860.66;;;23.50;100.00
14594;BME280;7383;52.354;9.756;2023-07-16T00:27:52;-12860.47;;;23.49;100.00
14594;BME280;7383;52.354;9.756;2023-07-16T00:30:18;-12860.72;;;23.51;100.00
14594;BME280;7383;52.354;9.756;2023-07-16T00:32:45;-12860.81;;;23.51;100.00
14594;BME280;7383;52.354;9.756;2023-07-16T00:35:11;-12861.41;;;23.55;100.00
14594;BME280;7383;52.354;9.756;2023-07-16T00:37:38;-12861.66;;;23.57;100.00
14594;BME280;7383;52.354;9.756;2023-07-16T00:40:08;-12861.75;;;23.57;100.00
14594;BME280;7383;52.354;9.756;2023-07-16T00:42:34;-12861.94;;;23.58;100.00
14594;BME280;7383;52.354;9.756;2023-07-16T00:45:01;-12861.75;;;23.57;100.00
14594;BME280;7383;52.354;9.756;2023-07-16T00:47:28;-12861.16;;;23.53;100.00
14594;BME280;7383;52.354;9.756;2023-07-16T00:49:55;-12860.66;;;23.50;100.00
14594;BME280;7383;52.354;9.756;2023-07-16T00:52:22;-12860.47;;;23.49;100.00
14594;BME280;7383;52.354;9.756;2023-07-16T00:54:48;-12860.72;;;23.51;100.00
14594;BME280;7383;52.354;9.756;2023-07-16T00:57:17;-12860.81;;;23.51;100.00
14594;BME280;7383;52.354;9.756;2023-07-16T00:59:43;-12860.47;;;23.49;100.00
14594;BME280;7383;52.354;9.756;2023-07-16T01:02:10;-12859.97;;;23.46;100.00
14594;BME280;7383;52.354;9.756;2023-07-16T01:04:37;-12859.97;;;23.46;100.00
14594;BME280;7383;52.354;9.756;2023-07-16T01:07:06;-12859.38;;;23.43;100.00
14594;BME280;7383;52.354;9.756;2023-07-16T01:09:36;-12859.53;;;23.44;100.00
14594;BME280;7383;52.354;9.756;2023-07-16T01:12:07;-12858.41;;;23.37;100.00
14594;BME280;7383;52.354;9.756;2023-07-16T01:14:37;-12858.69;;;23.39;100.00
14594;BME280;7383;52.354;9.756;2023-07-16T01:17:05;-12858.69;;;23.39;100.00
14594;BME280;7383;52.354;9.756;2023-07-16T01:19:32;-12858.69;;;23.39;100.00
14594;BME280;7383;52.354;9.756;2023-07-16T01:22:10;-12858.25;;;23.36;100.00
14594;BME280;7383;52.354;9.756;2023-07-16T01:24:57;-12858.69;;;23.39;100.00
14594;BME280;7383;52.354;9.756;2023-07-16T01:27:39;-12858.25;;;23.36;100.00
14594;BME280;7383;52.354;9.756;2023-07-16T01:30:15;-12858.34;;;23.37;100.00
14594;BME280;7383;52.354;9.756;2023-07-16T01:32:43;-12858.00;;;23.35;100.00
14594;BME280;7383;52.354;9.756;2023-07-16T01:35:11;-12857.81;;;23.34;100.00
14594;BME280;7383;52.354;9.756;2023-07-16T01:37:38;-12857.72;;;23.33;100.00
14594;BME280;7383;52.354;9.756;2023-07-16T01:40:07;-12857.81;;;23.34;100.00
14594;BME280;7383;52.354;9.756;2023-07-16T01:42:35;-12857.81;;;23.34;100.00
14594;BME280;7383;52.354;9.756;2023-07-16T01:45:01;-12857.56;;;23.32;100.00
14594;BME280;7383;52.354;9.756;2023-07-16T01:47:39;-12857.81;;;23.34;100.00
14594;BME280;7383;52.354;9.756;2023-07-16T01:50:07;-12857.47;;;23.32;100.00
14594;BME280;7383;52.354;9.756;2023-07-16T01:52:34;-12857.31;;;23.31;100.00
14594;BME280;7383;52.354;9.756;2023-07-16T01:55:00;-12857.41;;;23.31;100.00
14594;BME280;7383;52.354;9.756;2023-07-16T01:57:27;-12856.28;;;23.25;100.00
14594;BME280;7383;52.354;9.756;2023-07-16T01:59:53;-12855.69;;;23.21;100.00
14594;BME280;7383;52.354;9.756;2023-07-16T02:02:20;-12855.25;;;23.19;100.00
14594;BME280;7383;52.354;9.756;2023-07-16T02:04:48;-12854.75;;;23.16;100.00
14594;BME280;7383;52.354;9.756;2023-07-16T02:07:14;-12855.09;;;23.18;100.00
14594;BME280;7383;52.354;9.756;2023-07-16T02:09:41;-12855.00;;;23.17;100.00
14594;BME280;7383;52.354;9.756;2023-07-16T02:12:07;-12854.75;;;23.16;100.00
14594;BME280;7383;52.354;9.756;2023-07-16T02:14:34;-12854.66;;;23.15;100.00
14594;BME280;7383;52.354;9.756;2023-07-16T02:17:00;-12854.16;;;23.12;100.00
14594;BME280;7383;52.354;9.756;2023-07-16T02:19:27;-12854.56;;;23.15;100.00
14594;BME280;7383;52.354;9.756;2023-07-16T02:21:55;-12854.75;;;23.16;100.00
14594;BME280;7383;52.354;9.756;2023-07-16T02:24:21;-12854.84;;;23.16;100.00
14594;BME280;7383;52.354;9.756;2023-07-16T02:26:48;-12854.41;;;23.14;100.00
14594;BME280;7383;52.354;9.756;2023-07-16T02:29:14;-12854.41;;;23.14;100.00
14594;BME280;7383;52.354;9.756;2023-07-16T02:31:41;-12853.97;;;23.11;100.00
14594;BME280;7383;52.354;9.756;2023-07-16T02:34:08;-12853.91;;;23.11;100.00
14594;BME280;7383;52.354;9.756;2023-07-16T02:36:35;-12853.72;;;23.10;100.00
14594;BME280;7383;52.354;9.756;2023-07-16T02:39:03;-12853.81;;;23.10;100.00
14594;BME280;7383;52.354;9.756;2023-07-16T02:41:29;-12853.63;;;23.09;100.00
14594;BME280;7383;52.354;9.756;2023-07-16T02:44:00;-12852.88;;;23.04;100.00
14594;BME280;7383;52.354;9.756;2023-07-16T02:46:27;-12852.88;;;23.04;100.00
14594;BME280;7383;52.354;9.756;2023-07-16T02:48:53;-12852.25;;;23.01;100.00
14594;BME280;7383;52.354;9.756;2023-07-16T02:51:20;-12852.53;;;23.02;100.00
14594;BME280;7383;52.354;9.756;2023-07-16T02:53:47;-12851.94;;;22.99;100.00
14594;BME280;7383;52.354;9.756;2023-07-16T02:56:15;-12851.59;;;22.97;100.00
14594;BME280;7383;52.354;9.756;2023-07-16T02:58:41;-12851.41;;;22.96;100.00
14594;BME280;7383;52.354;9.756;2023-07-16T03:01:08;-12850.81;;;22.92;100.00
14594;BME280;7383;52.354;9.756;2023-07-16T03:03:34;-12849.69;;;22.86;100.00
14594;BME280;7383;52.354;9.756;2023-07-16T03:06:01;-12849.28;;;22.83;100.00
14594;BME280;7383;52.354;9.756;2023-07-16T03:08:28;-12848.69;;;22.80;100.00
14594;BME280;7383;52.354;9.756;2023-07-16T03:10:55;-12848.41;;;22.78;100.00
14594;BME280;7383;52.354;9.756;2023-07-16T03:13:23;-12848.50;;;22.79;100.00
14594;BME280;7383;52.354;9.756;2023-07-16T03:15:49;-12848.06;;;22.76;100.00
14594;BME280;7383;52.354;9.756;2023-07-16T03:18:17;-12847.91;;;22.75;100.00
14594;BME280;7383;52.354;9.756;2023-07-16T03:20:44;-12847.75;;;22.74;100.00
14594;BME280;7383;52.354;9.756;2023-07-16T03:23:11;-12847.06;;;22.70;100.00
14594;BME280;7383;52.354;9.756;2023-07-16T03:25:37;-12846.38;;;22.66;100.00
14594;BME280;7383;52.354;9.756;2023-07-16T03:28:04;-12846.28;;;22.66;100.00
14594;BME280;7383;52.354;9.756;2023-07-16T03:30:32;-12846.28;;;22.66;100.00
14594;BME280;7383;52.354;9.756;2023-07-16T03:32:58;-12845.34;;;22.60;100.00
14594;BME280;7383;52.354;9.756;2023-07-16T03:35:25;-12845.44;;;22.61;100.00
14594;BME280;7383;52.354;9.756;2023-07-16T03:37:52;-12845.00;;;22.58;100.00
14594;BME280;7383;52.354;9.756;2023-07-16T03:40:25;-12844.91;;;22.57;100.00
14594;BME280;7383;52.354;9.756;2023-07-16T03:42:52;-12843.88;;;22.51;100.00
14594;BME280;7383;52.354;9.756;2023-07-16T03:45:19;-12843.53;;;22.49;100.00
14594;BME280;7383;52.354;9.756;2023-07-16T03:47:47;-12843.78;;;22.51;100.00
14594;BME280;7383;52.354;9.756;2023-07-16T03:50:14;-12843.19;;;22.47;100.00
14594;BME280;7383;52.354;9.756;2023-07-16T03:52:40;-12842.59;;;22.44;100.00
14594;BME280;7383;52.354;9.756;2023-07-16T03:55:07;-12842.59;;;22.44;100.00
14594;BME280;7383;52.354;9.756;2023-07-16T03:57:34;-12842.59;;;22.44;100.00
14594;BME280;7383;52.354;9.756;2023-07-16T04:00:01;-12842.34;;;22.42;100.00
14594;BME280;7383;52.354;9.756;2023-07-16T04:02:28;-12842.78;;;22.45;100.00
14594;BME280;7383;52.354;9.756;2023-07-16T04:04:56;-12842.25;;;22.42;100.00
14594;BME280;7383;52.354;9.756;2023-07-16T04:07:22;-12841.75;;;22.39;100.00
14594;BME280;7383;52.354;9.756;2023-07-16T04:09:49;-12840.97;;;22.34;100.00
14594;BME280;7383;52.354;9.756;2023-07-16T04:12:15;-12840.88;;;22.34;100.00
14594;BME280;7383;52.354;9.756;2023-07-16T04:14:42;-12840.81;;;22.33;100.00
14594;BME280;7383;52.354;9.756;2023-07-16T04:17:09;-12840.47;;;22.31;100.00
14594;BME280;7383;52.354;9.756;2023-07-16T04:19:35;-12840.81;;;22.33;100.00
14594;BME280;7383;52.354;9.756;2023-07-16T04:22:04;-12840.47;;;22.31;100.00
14594;BME280;7383;52.354;9.756;2023-07-16T04:24:31;-12841.06;;;22.35;100.00
14594;BME280;7383;52.354;9.756;2023-07-16T04:26:58;-12841.50;;;22.37;100.00
14594;BME280;7383;52.354;9.756;2023-07-16T04:29:25;-12841.91;;;22.40;100.00
14594;BME280;7383;52.354;9.756;2023-07-16T04:31:52;-12842.78;;;22.45;100.00
14594;BME280;7383;52.354;9.756;2023-07-16T04:34:18;-12843.28;;;22.48;100.00
14594;BME280;7383;52.354;9.756;2023-07-16T04:36:45;-12843.28;;;22.48;100.00
14594;BME280;7383;52.354;9.756;2023-07-16T04:39:13;-12842.69;;;22.44;100.00
14594;BME280;7383;52.354;9.756;2023-07-16T04:41:39;-12842.34;;;22.42;100.00
14594;BME280;7383;52.354;9.756;2023-07-16T04:44:06;-12841.31;;;22.36;100.00
14594;BME280;7383;52.354;9.756;2023-07-16T04:46:32;-12840.88;;;22.34;100.00
14594;BME280;7383;52.354;9.756;2023-07-16T04:48:59;-12839.94;;;22.28;100.00
14594;BME280;7383;52.354;9.756;2023-07-16T04:51:26;-12839.88;;;22.28;100.00
14594;BME280;7383;52.354;9.756;2023-07-16T04:53:53;-12839.78;;;22.27;100.00
14594;BME280;7383;52.354;9.756;2023-07-16T04:56:21;-12840.19;;;22.30;100.00
14594;BME280;7383;52.354;9.756;2023-07-16T04:58:47;-12840.13;;;22.29;100.00
14594;BME280;7383;52.354;9.756;2023-07-16T05:01:14;-12840.38;;;22.31;100.00
14594;BME280;7383;52.354;9.756;2023-07-16T05:03:40;-12840.97;;;22.34;100.00
14594;BME280;7383;52.354;9.756;2023-07-16T05:06:07;-12841.50;;;22.37;100.00
14594;BME280;7383;52.354;9.756;2023-07-16T05:08:33;-12842.25;;;22.42;100.00
14594;BME280;7383;52.354;9.756;2023-07-16T05:11:01;-12841.91;;;22.40;100.00
14594;BME280;7383;52.354;9.756;2023-07-16T05:13:28;-12842.44;;;22.43;100.00
14594;BME280;7383;52.354;9.756;2023-07-16T05:15:55;-12842.78;;;22.45;100.00
14594;BME280;7383;52.354;9.756;2023-07-16T05:18:21;-12842.78;;;22.45;100.00
14594;BME280;7383;52.354;9.756;2023-07-16T05:20:48;-12842.78;;;22.45;100.00
14594;BME280;7383;52.354;9.756;2023-07-16T05:23:15;-12843.63;;;22.50;100.00
14594;BME280;7383;52.354;9.756;2023-07-16T05:25:45;-12843.72;;;22.50;100.00
14594;BME280;7383;52.354;9.756;2023-07-16T05:28:12;-12842.25;;;22.42;100.00
14594;BME280;7383;52.354;9.756;2023-07-16T05:30:40;-12842.59;;;22.44;100.00
14594;BME280;7383;52.354;9.756;2023-07-16T05:33:07;-12843.28;;;22.48;100.00
14594;BME280;7383;52.354;9.756;2023-07-16T05:35:33;-12843.38;;;22.48;100.00
14594;BME280;7383;52.354;9.756;2023-07-16T05:38:00;-12843.19;;;22.47;100.00
14594;BME280;7383;52.354;9.756;2023-07-16T05:40:26;-12843.38;;;22.48;100.00
14594;BME280;7383;52.354;9.756;2023-07-16T05:42:54;-12842.94;;;22.46;100.00
14594;BME280;7383;52.354;9.756;2023-07-16T05:45:20;-12842.25;;;22.42;100.00
14594;BME280;7383;52.354;9.756;2023-07-16T05:47:49;-12842.34;;;22.42;100.00
14594;BME280;7383;52.354;9.756;2023-07-16T05:50:16;-12842.84;;;22.45;100.00
14594;BME280;7383;52.354;9.756;2023-07-16T05:52:43;-12843.63;;;22.50;100.00
14594;BME280;7383;52.354;9.756;2023-07-16T05:55:10;-12843.19;;;22.47;100.00
14594;BME280;7383;52.354;9.756;2023-07-16T05:57:37;-12843.03;;;22.46;100.00
14594;BME280;7383;52.354;9.756;2023-07-16T06:00:04;-12842.69;;;22.44;100.00
14594;BME280;7383;52.354;9.756;2023-07-16T06:02:32;-12843.72;;;22.50;100.00
14594;BME280;7383;52.354;9.756;2023-07-16T06:05:00;-12844.66;;;22.56;100.00
14594;BME280;7383;52.354;9.756;2023-07-16T06:07:26;-12844.41;;;22.54;100.00
14594;BME280;7383;52.354;9.756;2023-07-16T06:09:53;-12843.78;;;22.51;100.00
14594;BME280;7383;52.354;9.756;2023-07-16T06:12:19;-12844.47;;;22.55;100.00
14594;BME280;7383;52.354;9.756;2023-07-16T06:14:45;-12845.34;;;22.60;100.00
14594;BME280;7383;52.354;9.756;2023-07-16T06:17:12;-12845.75;;;22.63;100.00
14594;BME280;7383;52.354;9.756;2023-07-16T06:19:38;-12845.00;;;22.58;100.00
14594;BME280;7383;52.354;9.756;2023-07-16T06:22:06;-12845.34;;;22.60;100.00
14594;BME280;7383;52.354;9.756;2023-07-16T06:24:34;-12845.69;;;22.62;100.00
14594;BME280;7383;52.354;9.756;2023-07-16T06:27:00;-12845.84;;;22.63;100.00
14594;BME280;7383;52.354;9.756;2023-07-16T06:29:27;-12847.06;;;22.70;100.00
14594;BME280;7383;52.354;9.756;2023-07-16T06:31:56;-12847.41;;;22.72;100.00
14594;BME280;7383;52.354;9.756;2023-07-16T06:34:26;-12846.88;;;22.69;100.00
14594;BME280;7383;52.354;9.756;2023-07-16T06:36:53;-12846.88;;;22.69;100.00
14594;BME280;7383;52.354;9.756;2023-07-16T06:39:21;-12846.63;;;22.68;100.00
14594;BME280;7383;52.354;9.756;2023-07-16T06:41:47;-12846.19;;;22.65;100.00
14594;BME280;7383;52.354;9.756;2023-07-16T06:44:14;-12845.94;;;22.64;100.00
14594;BME280;7383;52.354;9.756;2023-07-16T06:46:40;-12845.94;;;22.64;100.00
14594;BME280;7383;52.354;9.756;2023-07-16T06:49:07;-12846.72;;;22.68;100.00
14594;BME280;7383;52.354;9.756;2023-07-16T06:51:34;-12847.75;;;22.74;100.00
14594;BME280;7383;52.354;9.756;2023-07-16T06:54:00;-12848.94;;;22.81;100.00
14594;BME280;7383;52.354;9.756;2023-07-16T06:56:28;-12850.66;;;22.91;100.00
14594;BME280;7383;52.354;9.756;2023-07-16T06:58:55;-12851.50;;;22.96;100.00
14594;BME280;7383;52.354;9.756;2023-07-16T07:01:21;-12851.31;;;22.95;100.00
14594;BME280;7383;52.354;9.756;2023-07-16T07:03:47;-12851.75;;;22.98;100.00
14594;BME280;7383;52.354;9.756;2023-07-16T07:06:14;-12851.06;;;22.94;100.00
14594;BME280;7383;52.354;9.756;2023-07-16T07:08:41;-12850.91;;;22.93;100.00
14594;BME280;7383;52.354;9.756;2023-07-16T07:11:07;-12851.84;;;22.98;100.00
14594;BME280;7383;52.354;9.756;2023-07-16T07:13:35;-12852.25;;;23.01;100.00
14594;BME280;7383;52.354;9.756;2023-07-16T07:16:02;-12854.31;;;23.13;100.00
14594;BME280;7383;52.354;9.756;2023-07-16T07:18:28;-12856.19;;;23.24;100.00
14594;BME280;7383;52.354;9.756;2023-07-16T07:20:55;-12857.31;;;23.31;100.00
14594;BME280;7383;52.354;9.756;2023-07-16T07:23:21;-12857.31;;;23.31;100.00
14594;BME280;7383;52.354;9.756;2023-07-16T07:25:49;-12855.94;;;23.23;100.00
14594;BME280;7383;52.354;9.756;2023-07-16T07:28:16;-12854.06;;;23.12;100.00
14594;BME280;7383;52.354;9.756;2023-07-16T07:30:45;-12852.69;;;23.03;100.00
14594;BME280;7383;52.354;9.756;2023-07-16T07:33:11;-12851.75;;;22.98;100.00
14594;BME280;7383;52.354;9.756;2023-07-16T07:35:38;-12851.41;;;22.96;100.00
14594;BME280;7383;52.354;9.756;2023-07-16T07:38:05;-12850.91;;;22.93;100.00
14594;BME280;7383;52.354;9.756;2023-07-16T07:40:32;-12852.25;;;23.01;100.00
14594;BME280;7383;52.354;9.756;2023-07-16T07:42:58;-12852.94;;;23.05;100.00
14594;BME280;7383;52.354;9.756;2023-07-16T07:45:26;-12853.81;;;23.10;100.00
14594;BME280;7383;52.354;9.756;2023-07-16T07:47:53;-12854.41;;;23.14;100.00
14594;BME280;7383;52.354;9.756;2023-07-16T07:50:20;-12855.00;;;23.17;100.00
14594;BME280;7383;52.354;9.756;2023-07-16T07:52:47;-12855.34;;;23.19;100.00
14594;BME280;7383;52.354;9.756;2023-07-16T07:55:14;-12855.69;;;23.21;100.00
14594;BME280;7383;52.354;9.756;2023-07-16T07:57:40;-12856.19;;;23.24;100.00
14594;BME280;7383;52.354;9.756;2023-07-16T08:00:08;-12856.38;;;23.25;100.00
14594;BME280;7383;52.354;9.756;2023-07-16T08:02:36;-12856.53;;;23.26;100.00
14594;BME280;7383;52.354;9.756;2023-07-16T08:05:05;-12856.78;;;23.28;100.00
14594;BME280;7383;52.354;9.756;2023-07-16T08:07:32;-12857.66;;;23.33;100.00
14594;BME280;7383;52.354;9.756;2023-07-16T08:09:59;-12857.31;;;23.31;100.00
14594;BME280;7383;52.354;9.756;2023-07-16T08:12:25;-12857.31;;;23.31;100.00
14594;BME280;7383;52.354;9.756;2023-07-16T08:14:52;-12858.06;;;23.35;100.00
14594;BME280;7383;52.354;9.756;2023-07-16T08:17:18;-12858.06;;;23.35;100.00
14594;BME280;7383;52.354;9.756;2023-07-16T08:19:45;-12858.16;;;23.36;100.00
14594;BME280;7383;52.354;9.756;2023-07-16T08:22:14;-12858.25;;;23.36;100.00
14594;BME280;7383;52.354;9.756;2023-07-16T08:24:40;-12859.38;;;23.43;100.00
14594;BME280;7383;52.354;9.756;2023-07-16T08:27:07;-12859.97;;;23.46;100.00
14594;BME280;7383;52.354;9.756;2023-07-16T08:29:35;-12859.09;;;23.41;100.00
14594;BME280;7383;52.354;9.756;2023-07-16T08:32:02;-12860.38;;;23.49;100.00
14594;BME280;7383;52.354;9.756;2023-07-16T08:34:29;-12861.31;;;23.55;100.00
14594;BME280;7383;52.354;9.756;2023-07-16T08:36:56;-12860.81;;;23.51;100.00
14594;BME280;7383;52.354;9.756;2023-07-16T08:39:24;-12860.22;;;23.48;100.00
14594;BME280;7383;52.354;9.756;2023-07-16T08:41:50;-12859.63;;;23.44;100.00
14594;BME280;7383;52.354;9.756;2023-07-16T08:44:17;-12860.03;;;23.47;100.00
14594;BME280;7383;52.354;9.756;2023-07-16T08:46:44;-12861.00;;;23.52;100.00
14594;BME280;7383;52.354;9.756;2023-07-16T08:49:12;-12861.41;;;23.55;100.00
14594;BME280;7383;52.354;9.756;2023-07-16T08:51:39;-12861.66;;;23.57;100.00
14594;BME280;7383;52.354;9.756;2023-07-16T08:54:08;-12862.09;;;23.59;100.00
14594;BME280;7383;52.354;9.756;2023-07-16T08:56:36;-12863.03;;;23.65;100.00
14594;BME280;7383;52.354;9.756;2023-07-16T08:59:03;-12863.53;;;23.68;100.00
14594;BME280;7383;52.354;9.756;2023-07-16T09:01:30;-12863.72;;;23.69;100.00
14594;BME280;7383;52.354;9.756;2023-07-16T09:03:57;-12865.00;;;23.76;100.00
14594;BME280;7383;52.354;9.756;2023-07-16T09:06:23;-12864.75;;;23.75;100.00
14594;BME280;7383;52.354;9.756;2023-07-16T09:08:50;-12864.31;;;23.72;100.00
14594;BME280;7383;52.354;9.756;2023-07-16T09:11:16;-12864.16;;;23.71;100.00
14594;BME280;7383;52.354;9.756;2023-07-16T09:13:48;-12863.81;;;23.69;100.00
14594;BME280;7383;52.354;9.756;2023-07-16T09:16:17;-12863.53;;;23.68;100.00
14594;BME280;7383;52.354;9.756;2023-07-16T09:18:44;-12863.81;;;23.69;100.00
14594;BME280;7383;52.354;9.756;2023-07-16T09:21:11;-12864.47;;;23.73;100.00
14594;BME280;7383;52.354;9.756;2023-07-16T09:23:37;-12865.34;;;23.78;100.00
14594;BME280;7383;52.354;9.756;2023-07-16T09:26:04;-12866.09;;;23.83;100.00
14594;BME280;7383;52.354;9.756;2023-07-16T09:28:31;-12867.13;;;23.89;100.00
14594;BME280;7383;52.354;9.756;2023-07-16T09:31:04;-12867.91;;;23.93;100.00
14594;BME280;7383;52.354;9.756;2023-07-16T09:33:31;-12869.34;;;24.02;100.00
14594;BME280;7383;52.354;9.756;2023-07-16T09:35:58;-12869.00;;;24.00;100.00
14594;BME280;7383;52.354;9.756;2023-07-16T09:38:26;-12868.66;;;23.98;100.00
14594;BME280;7383;52.354;9.756;2023-07-16T09:40:55;-12868.41;;;23.96;100.00
14594;BME280;7383;52.354;9.756;2023-07-16T09:43:22;-12869.09;;;24.00;100.00
14594;BME280;7383;52.354;9.756;2023-07-16T09:45:49;-12869.00;;;24.00;100.00
14594;BME280;7383;52.354;9.756;2023-07-16T09:48:17;-12868.50;;;23.97;100.00
14594;BME280;7383;52.354;9.756;2023-07-16T09:50:49;-12868.31;;;23.96;100.00
14594;BME280;7383;52.354;9.756;2023-07-16T09:53:18;-12868.00;;;23.94;100.00
14594;BME280;7383;52.354;9.756;2023-07-16T09:55:46;-12869.19;;;24.01;100.00
14594;BME280;7383;52.354;9.756;2023-07-16T09:58:13;-12869.19;;;24.01;100.00
14594;BME280;7383;52.354;9.756;2023-07-16T10:00:41;-12869.78;;;24.05;100.00
14594;BME280;7383;52.354;9.756;2023-07-16T10:03:08;-12869.28;;;24.01;100.00
14594;BME280;7383;52.354;9.756;2023-07-16T10:05:37;-12868.84;;;23.99;100.00
14594;BME280;7383;52.354;9.756;2023-07-16T10:08:04;-12867.91;;;23.93;100.00
14594;BME280;7383;52.354;9.756;2023-07-16T10:10:38;-12868.59;;;23.97;100.00
14594;BME280;7383;52.354;9.756;2023-07-16T10:13:07;-12869.53;;;24.03;100.00
14594;BME280;7383;52.354;9.756;2023-07-16T10:15:33;-12871.56;;;24.15;100.00
14594;BME280;7383;52.354;9.756;2023-07-16T10:18:00;-12872.78;;;24.22;100.00
14594;BME280;7383;52.354;9.756;2023-07-16T10:20:31;-12873.44;;;24.26;100.00
14594;BME280;7383;52.354;9.756;2023-07-16T10:23:09;-12875.16;;;24.36;100.00
14594;BME280;7383;52.354;9.756;2023-07-16T10:25:37;-12876.94;;;24.47;100.00
14594;BME280;7383;52.354;9.756;2023-07-16T10:28:03;-12877.47;;;24.50;100.00
14594;BME280;7383;52.354;9.756;2023-07-16T10:30:30;-12878.13;;;24.54;100.00
14594;BME280;7383;52.354;9.756;2023-07-16T10:32:57;-12878.66;;;24.57;100.00
14594;BME280;7383;52.354;9.756;2023-07-16T10:35:25;-12878.22;;;24.55;100.00
14594;BME280;7383;52.354;9.756;2023-07-16T10:37:54;-12878.81;;;24.58;100.00
14594;BME280;7383;52.354;9.756;2023-07-16T10:40:22;-12879.50;;;24.62;100.00
14594;BME280;7383;52.354;9.756;2023-07-16T10:42:48;-12879.41;;;24.62;100.00
14594;BME280;7383;52.354;9.756;2023-07-16T10:45:15;-12880.53;;;24.68;100.00
14594;BME280;7383;52.354;9.756;2023-07-16T10:47:51;-12881.56;;;24.74;100.00
14594;BME280;7383;52.354;9.756;2023-07-16T10:50:19;-12881.72;;;24.75;100.00
14594;BME280;7383;52.354;9.756;2023-07-16T10:52:50;-12882.66;;;24.81;100.00
14594;BME280;7383;52.354;9.756;2023-07-16T10:55:17;-12883.34;;;24.85;100.00
14594;BME280;7383;52.354;9.756;2023-07-16T10:57:46;-12883.94;;;24.88;100.00
14594;BME280;7383;52.354;9.756;2023-07-16T11:00:15;-12883.75;;;24.87;100.00
14594;BME280;7383;52.354;9.756;2023-07-16T11:02:43;-12884.19;;;24.90;100.00
14594;BME280;7383;52.354;9.756;2023-07-16T11:05:10;-12884.09;;;24.89;100.00
14594;BME280;7383;52.354;9.756;2023-07-16T11:07:37;-12883.69;;;24.87;100.00
14594;BME280;7383;52.354;9.756;2023-07-16T11:10:04;-12886.16;;;25.02;100.00
14594;BME280;7383;52.354;9.756;2023-07-16T11:12:31;-12886.56;;;25.04;100.00
14594;BME280;7383;52.354;9.756;2023-07-16T11:14:59;-12886.84;;;25.06;100.00
14594;BME280;7383;52.354;9.756;2023-07-16T11:17:25;-12888.09;;;25.13;100.00
14594;BME280;7383;52.354;9.756;2023-07-16T11:19:53;-12888.97;;;25.18;100.00
14594;BME280;7383;52.354;9.756;2023-07-16T11:22:24;-12889.72;;;25.23;100.00
14594;BME280;7383;52.354;9.756;2023-07-16T11:24:51;-12890.56;;;25.28;100.00
14594;BME280;7383;52.354;9.756;2023-07-16T11:27:20;-12891.50;;;25.33;100.00
14594;BME280;7383;52.354;9.756;2023-07-16T11:29:48;-12893.38;;;25.44;100.00
14594;BME280;7383;52.354;9.756;2023-07-16T11:32:27;-12895.94;;;25.60;100.00
14594;BME280;7383;52.354;9.756;2023-07-16T11:34:55;-12898.25;;;25.73;100.00
14594;BME280;7383;52.354;9.756;2023-07-16T11:37:22;-12899.09;;;25.78;100.00
14594;BME280;7383;52.354;9.756;2023-07-16T11:39:50;-12897.63;;;25.70;100.00
14594;BME280;7383;52.354;9.756;2023-07-16T11:42:23;-12899.44;;;25.80;100.00
14594;BME280;7383;52.354;9.756;2023-07-16T11:44:50;-12899.09;;;25.78;100.00
14594;BME280;7383;52.354;9.756;2023-07-16T11:47:17;-12899.84;;;25.83;100.00
14594;BME280;7383;52.354;9.756;2023-07-16T11:49:45;-12901.28;;;25.91;100.00
14594;BME280;7383;52.354;9.756;2023-07-16T11:52:11;-12901.81;;;25.94;100.00
14594;BME280;7383;52.354;9.756;2023-07-16T11:54:38;-12903.34;;;26.04;100.00
14594;BME280;7383;52.354;9.756;2023-07-16T11:57:05;-12904.03;;;26.08;100.00
14594;BME280;7383;52.354;9.756;2023-07-16T11:59:31;-12905.28;;;26.15;100.00
14594;BME280;7383;52.354;9.756;2023-07-16T12:01:58;-12905.97;;;26.19;100.00
14594;BME280;7383;52.354;9.756;2023-07-16T12:04:25;-12905.91;;;26.19;100.00
14594;BME280;7383;52.354;9.756;2023-07-16T12:06:53;-12904.69;;;26.12;100.00
14594;BME280;7383;52.354;9.756;2023-07-16T12:09:20;-12904.78;;;26.12;100.00
14594;BME280;7383;52.354;9.756;2023-07-16T12:11:46;-12907.84;;;26.30;100.00
14594;BME280;7383;52.354;9.756;2023-07-16T12:14:13;-12910.66;;;26.47;100.00
14594;BME280;7383;52.354;9.756;2023-07-16T12:16:39;-12910.81;;;26.48;100.00
14594;BME280;7383;52.354;9.756;2023-07-16T12:19:08;-12910.91;;;26.49;100.00
14594;BME280;7383;52.354;9.756;2023-07-16T12:21:34;-12912.34;;;26.57;100.00
14594;BME280;7383;52.354;9.756;2023-07-16T12:24:03;-12913.44;;;26.64;100.00
14594;BME280;7383;52.354;9.756;2023-07-16T12:26:30;-12914.03;;;26.67;100.00
14594;BME280;7383;52.354;9.756;2023-07-16T12:28:57;-12914.72;;;26.71;100.00
14594;BME280;7383;52.354;9.756;2023-07-16T12:31:24;-12915.06;;;26.73;100.00
14594;BME280;7383;52.354;9.756;2023-07-16T12:33:50;-12915.91;;;26.78;100.00
14594;BME280;7383;52.354;9.756;2023-07-16T12:36:17;-12916.75;;;26.83;100.00
14594;BME280;7383;52.354;9.756;2023-07-16T12:38:44;-12917.19;;;26.86;100.00
14594;BME280;7383;52.354;9.756;2023-07-16T12:41:12;-12918.63;;;26.95;100.00
14594;BME280;7383;52.354;9.756;2023-07-16T12:43:40;-12919.97;;;27.03;100.00
14594;BME280;7383;52.354;9.756;2023-07-16T12:46:06;-12921.50;;;27.12;100.00
14594;BME280;7383;52.354;9.756;2023-07-16T12:48:33;-12922.69;;;27.19;100.00
14594;BME280;7383;52.354;9.756;2023-07-16T12:50:59;-12924.06;;;27.27;100.00